Terminal Aerodrome Forecast
Issued by NWS

Home | Current Version | Previous Version | Graphics & Text | Print | Product List | Glossary On
Versions: 1 2 3 4 5 6 7 8 9 10 11 12
000
FTUS43 KIWX 251000 AAA
TAFSBN
TAF AMD
KSBN 251003Z 2510/2606 26012KT P6SM VCSH BKN015 OVC035
     FM251300 23013KT P6SM OVC020
     FM252000 22010KT P6SM BKN025
     FM252200 19008KT P6SM FEW025 BKN150=

USA.gov is the U.S. government's official web portal to all federal, state and local government web resources and services.